sensor_id;sensor_type;location;lat;lon;timestamp;temperature;humidity
14908;DHT22;7545;52.092;7.006;2022-09-02T00:01:12;18.40;99.90
14908;DHT22;7545;52.092;7.006;2022-09-02T00:03:38;18.30;99.90
14908;DHT22;7545;52.092;7.006;2022-09-02T00:06:04;18.40;99.90
14908;DHT22;7545;52.092;7.006;2022-09-02T00:08:30;18.30;99.90
14908;DHT22;7545;52.092;7.006;2022-09-02T00:10:57;18.30;99.90
14908;DHT22;7545;52.092;7.006;2022-09-02T00:13:23;18.30;99.80
14908;DHT22;7545;52.092;7.006;2022-09-02T00:15:49;18.30;99.90
14908;DHT22;7545;52.092;7.006;2022-09-02T00:18:15;18.30;99.90
14908;DHT22;7545;52.092;7.006;2022-09-02T00:20:44;18.30;99.90
14908;DHT22;7545;52.092;7.006;2022-09-02T00:23:10;18.30;99.90
14908;DHT22;7545;52.092;7.006;2022-09-02T00:25:37;18.30;99.90
14908;DHT22;7545;52.092;7.006;2022-09-02T00:28:04;18.20;99.70
14908;DHT22;7545;52.092;7.006;2022-09-02T00:30:30;18.30;99.70
14908;DHT22;7545;52.092;7.006;2022-09-02T00:32:57;18.30;99.80
14908;DHT22;7545;52.092;7.006;2022-09-02T00:35:22;18.20;99.80
14908;DHT22;7545;52.092;7.006;2022-09-02T00:37:48;18.20;99.80
14908;DHT22;7545;52.092;7.006;2022-09-02T00:40:14;18.30;99.70
14908;DHT22;7545;52.092;7.006;2022-09-02T00:42:40;18.20;99.80
14908;DHT22;7545;52.092;7.006;2022-09-02T00:45:07;18.20;99.60
14908;DHT22;7545;52.092;7.006;2022-09-02T00:47:33;18.20;99.60
14908;DHT22;7545;52.092;7.006;2022-09-02T00:50:00;18.10;99.40
14908;DHT22;7545;52.092;7.006;2022-09-02T00:52:29;18.20;99.40
14908;DHT22;7545;52.092;7.006;2022-09-02T00:54:58;18.20;99.50
14908;DHT22;7545;52.092;7.006;2022-09-02T00:57:29;18.20;99.50
14908;DHT22;7545;52.092;7.006;2022-09-02T01:00:10;18.10;99.80
14908;DHT22;7545;52.092;7.006;2022-09-02T01:02:39;18.20;99.70
14908;DHT22;7545;52.092;7.006;2022-09-02T01:05:07;18.10;99.90
14908;DHT22;7545;52.092;7.006;2022-09-02T01:07:35;18.10;99.90
14908;DHT22;7545;52.092;7.006;2022-09-02T01:10:08;18.10;99.70
14908;DHT22;7545;52.092;7.006;2022-09-02T01:12:34;18.10;99.70
14908;DHT22;7545;52.092;7.006;2022-09-02T01:15:01;18.10;99.70
14908;DHT22;7545;52.092;7.006;2022-09-02T01:17:27;18.10;99.60
14908;DHT22;7545;52.092;7.006;2022-09-02T01:19:56;18.10;99.60
14908;DHT22;7545;52.092;7.006;2022-09-02T01:22:26;18.00;99.70
14908;DHT22;7545;52.092;7.006;2022-09-02T01:24:52;18.10;99.60
14908;DHT22;7545;52.092;7.006;2022-09-02T01:27:21;18.10;99.70
14908;DHT22;7545;52.092;7.006;2022-09-02T01:29:52;18.10;99.50
14908;DHT22;7545;52.092;7.006;2022-09-02T01:32:18;18.10;99.60
14908;DHT22;7545;52.092;7.006;2022-09-02T01:34:45;18.10;99.50
14908;DHT22;7545;52.092;7.006;2022-09-02T01:37:11;18.10;99.60
14908;DHT22;7545;52.092;7.006;2022-09-02T01:39:36;18.10;99.70
14908;DHT22;7545;52.092;7.006;2022-09-02T01:42:02;18.10;99.60
14908;DHT22;7545;52.092;7.006;2022-09-02T01:44:28;18.10;99.70
14908;DHT22;7545;52.092;7.006;2022-09-02T01:46:54;18.10;99.50
14908;DHT22;7545;52.092;7.006;2022-09-02T01:49:20;18.10;99.50
14908;DHT22;7545;52.092;7.006;2022-09-02T01:51:46;18.10;99.40
14908;DHT22;7545;52.092;7.006;2022-09-02T01:54:11;18.10;99.50
14908;DHT22;7545;52.092;7.006;2022-09-02T01:56:37;18.10;99.50
14908;DHT22;7545;52.092;7.006;2022-09-02T01:59:03;18.10;99.60
14908;DHT22;7545;52.092;7.006;2022-09-02T02:01:32;18.10;99.50
14908;DHT22;7545;52.092;7.006;2022-09-02T02:03:58;18.10;99.50
14908;DHT22;7545;52.092;7.006;2022-09-02T02:06:25;18.10;99.40
14908;DHT22;7545;52.092;7.006;2022-09-02T02:08:50;18.10;99.50
14908;DHT22;7545;52.092;7.006;2022-09-02T02:11:22;18.00;99.50
14908;DHT22;7545;52.092;7.006;2022-09-02T02:13:48;18.00;99.50
14908;DHT22;7545;52.092;7.006;2022-09-02T02:16:14;18.10;99.50
14908;DHT22;7545;52.092;7.006;2022-09-02T02:18:39;18.00;99.60
14908;DHT22;7545;52.092;7.006;2022-09-02T02:21:05;18.00;99.70
14908;DHT22;7545;52.092;7.006;2022-09-02T02:23:31;18.00;99.80
14908;DHT22;7545;52.092;7.006;2022-09-02T02:25:56;18.00;99.80
14908;DHT22;7545;52.092;7.006;2022-09-02T02:28:22;18.00;99.90
14908;DHT22;7545;52.092;7.006;2022-09-02T02:30:48;18.00;99.90
14908;DHT22;7545;52.092;7.006;2022-09-02T02:33:13;18.00;99.90
14908;DHT22;7545;52.092;7.006;2022-09-02T02:35:40;18.00;99.90
14908;DHT22;7545;52.092;7.006;2022-09-02T02:38:06;18.00;99.80
14908;DHT22;7545;52.092;7.006;2022-09-02T02:40:33;18.00;99.90
14908;DHT22;7545;52.092;7.006;2022-09-02T02:42:59;18.00;99.80
14908;DHT22;7545;52.092;7.006;2022-09-02T02:45:25;18.00;99.90
14908;DHT22;7545;52.092;7.006;2022-09-02T02:47:51;17.90;99.90
14908;DHT22;7545;52.092;7.006;2022-09-02T02:50:19;17.90;99.90
14908;DHT22;7545;52.092;7.006;2022-09-02T02:52:45;17.90;99.90
14908;DHT22;7545;52.092;7.006;2022-09-02T02:55:14;17.90;99.90
14908;DHT22;7545;52.092;7.006;2022-09-02T02:57:41;17.90;99.90
14908;DHT22;7545;52.092;7.006;2022-09-02T03:00:14;17.90;99.90
14908;DHT22;7545;52.092;7.006;2022-09-02T03:02:40;17.80;99.90
14908;DHT22;7545;52.092;7.006;2022-09-02T03:05:07;17.90;99.90
14908;DHT22;7545;52.092;7.006;2022-09-02T03:07:33;17.80;99.90
14908;DHT22;7545;52.092;7.006;2022-09-02T03:09:59;17.80;99.90
14908;DHT22;7545;52.092;7.006;2022-09-02T03:12:25;17.80;99.90
14908;DHT22;7545;52.092;7.006;2022-09-02T03:14:51;17.80;99.90
14908;DHT22;7545;52.092;7.006;2022-09-02T03:17:17;17.80;99.90
14908;DHT22;7545;52.092;7.006;2022-09-02T03:19:43;17.80;99.90
14908;DHT22;7545;52.092;7.006;2022-09-02T03:22:08;17.80;99.90
14908;DHT22;7545;52.092;7.006;2022-09-02T03:24:37;17.80;99.90
14908;DHT22;7545;52.092;7.006;2022-09-02T03:27:03;17.80;99.90
14908;DHT22;7545;52.092;7.006;2022-09-02T03:29:29;17.80;99.90
14908;DHT22;7545;52.092;7.006;2022-09-02T03:31:55;17.80;99.90
14908;DHT22;7545;52.092;7.006;2022-09-02T03:34:21;17.80;99.90
14908;DHT22;7545;52.092;7.006;2022-09-02T03:36:47;17.80;99.90
14908;DHT22;7545;52.092;7.006;2022-09-02T03:39:13;17.80;99.90
14908;DHT22;7545;52.092;7.006;2022-09-02T03:41:39;17.80;99.90
14908;DHT22;7545;52.092;7.006;2022-09-02T03:44:08;17.70;99.90
14908;DHT22;7545;52.092;7.006;2022-09-02T03:46:34;17.80;99.90
14908;DHT22;7545;52.092;7.006;2022-09-02T03:49:00;17.70;99.90
14908;DHT22;7545;52.092;7.006;2022-09-02T03:51:26;17.80;99.90
14908;DHT22;7545;52.092;7.006;2022-09-02T03:53:52;17.70;99.90
14908;DHT22;7545;52.092;7.006;2022-09-02T03:56:19;17.70;99.90
14908;DHT22;7545;52.092;7.006;2022-09-02T03:58:47;17.70;99.90
14908;DHT22;7545;52.092;7.006;2022-09-02T04:01:17;17.70;99.90
14908;DHT22;7545;52.092;7.006;2022-09-02T04:03:44;17.70;99.90
14908;DHT22;7545;52.092;7.006;2022-09-02T04:06:11;17.70;99.90
14908;DHT22;7545;52.092;7.006;2022-09-02T04:08:39;17.70;99.90
14908;DHT22;7545;52.092;7.006;2022-09-02T04:11:08;17.70;99.90
14908;DHT22;7545;52.092;7.006;2022-09-02T04:13:34;17.60;99.90
14908;DHT22;7545;52.092;7.006;2022-09-02T04:16:15;17.70;99.90
14908;DHT22;7545;52.092;7.006;2022-09-02T04:18:42;17.70;99.90
14908;DHT22;7545;52.092;7.006;2022-09-02T04:21:08;17.60;99.90
14908;DHT22;7545;52.092;7.006;2022-09-02T04:23:34;17.60;99.90
14908;DHT22;7545;52.092;7.006;2022-09-02T04:26:05;17.60;99.90
14908;DHT22;7545;52.092;7.006;2022-09-02T04:28:31;17.60;99.90
14908;DHT22;7545;52.092;7.006;2022-09-02T04:30:57;17.60;99.90
14908;DHT22;7545;52.092;7.006;2022-09-02T04:33:22;17.50;99.90
14908;DHT22;7545;52.092;7.006;2022-09-02T04:35:48;17.50;99.90
14908;DHT22;7545;52.092;7.006;2022-09-02T04:38:15;17.50;99.90
14908;DHT22;7545;52.092;7.006;2022-09-02T04:40:42;17.50;99.90
14908;DHT22;7545;52.092;7.006;2022-09-02T04:43:09;17.50;99.90
14908;DHT22;7545;52.092;7.006;2022-09-02T04:45:38;17.50;99.90
14908;DHT22;7545;52.092;7.006;2022-09-02T04:48:04;17.50;99.90
14908;DHT22;7545;52.092;7.006;2022-09-02T04:50:29;17.50;99.90
14908;DHT22;7545;52.092;7.006;2022-09-02T04:52:55;17.50;99.90
14908;DHT22;7545;52.092;7.006;2022-09-02T04:55:20;17.40;99.90
14908;DHT22;7545;52.092;7.006;2022-09-02T04:57:46;17.50;99.90
14908;DHT22;7545;52.092;7.006;2022-09-02T05:00:12;17.40;99.90
14908;DHT22;7545;52.092;7.006;2022-09-02T05:02:38;17.40;99.90
14908;DHT22;7545;52.092;7.006;2022-09-02T05:05:05;17.40;99.90
14908;DHT22;7545;52.092;7.006;2022-09-02T05:07:31;17.40;99.90
14908;DHT22;7545;52.092;7.006;2022-09-02T05:09:59;17.40;99.90
14908;DHT22;7545;52.092;7.006;2022-09-02T05:12:25;17.40;99.90
14908;DHT22;7545;52.092;7.006;2022-09-02T05:14:53;17.40;99.90
14908;DHT22;7545;52.092;7.006;2022-09-02T05:17:21;17.40;99.90
14908;DHT22;7545;52.092;7.006;2022-09-02T05:19:47;17.40;99.90
14908;DHT22;7545;52.092;7.006;2022-09-02T05:22:13;17.40;99.90
14908;DHT22;7545;52.092;7.006;2022-09-02T05:24:39;17.40;99.90
14908;DHT22;7545;52.092;7.006;2022-09-02T05:27:06;17.40;99.90
14908;DHT22;7545;52.092;7.006;2022-09-02T05:29:32;17.40;99.90
14908;DHT22;7545;52.092;7.006;2022-09-02T05:31:58;17.40;99.90
14908;DHT22;7545;52.092;7.006;2022-09-02T05:34:23;17.40;99.90
14908;DHT22;7545;52.092;7.006;2022-09-02T05:36:49;17.40;99.90
14908;DHT22;7545;52.092;7.006;2022-09-02T05:39:15;17.40;99.90
14908;DHT22;7545;52.092;7.006;2022-09-02T05:41:41;17.50;99.90
14908;DHT22;7545;52.092;7.006;2022-09-02T05:44:06;17.50;99.90
14908;DHT22;7545;52.092;7.006;2022-09-02T05:46:32;17.50;99.90
14908;DHT22;7545;52.092;7.006;2022-09-02T05:48:58;17.50;99.90
14908;DHT22;7545;52.092;7.006;2022-09-02T05:51:33;17.50;99.90
14908;DHT22;7545;52.092;7.006;2022-09-02T05:54:01;17.50;99.90
14908;DHT22;7545;52.092;7.006;2022-09-02T05:56:27;17.50;99.90
14908;DHT22;7545;52.092;7.006;2022-09-02T05:58:56;17.50;99.90
14908;DHT22;7545;52.092;7.006;2022-09-02T06:01:24;17.60;99.90
14908;DHT22;7545;52.092;7.006;2022-09-02T06:03:50;17.60;99.90
14908;DHT22;7545;52.092;7.006;2022-09-02T06:06:16;17.60;99.90
14908;DHT22;7545;52.092;7.006;2022-09-02T06:08:43;17.60;99.90
14908;DHT22;7545;52.092;7.006;2022-09-02T06:11:11;17.60;99.90
14908;DHT22;7545;52.092;7.006;2022-09-02T06:13:39;17.70;99.90
14908;DHT22;7545;52.092;7.006;2022-09-02T06:16:06;17.70;99.90
14908;DHT22;7545;52.092;7.006;2022-09-02T06:18:35;17.80;99.90
14908;DHT22;7545;52.092;7.006;2022-09-02T06:21:02;17.80;99.90
14908;DHT22;7545;52.092;7.006;2022-09-02T06:23:28;17.80;99.90
14908;DHT22;7545;52.092;7.006;2022-09-02T06:25:54;17.80;99.90
14908;DHT22;7545;52.092;7.006;2022-09-02T06:28:19;17.90;99.90
14908;DHT22;7545;52.092;7.006;2022-09-02T06:30:46;17.90;99.90
14908;DHT22;7545;52.092;7.006;2022-09-02T06:33:13;18.00;99.90
14908;DHT22;7545;52.092;7.006;2022-09-02T06:35:41;18.00;99.90
14908;DHT22;7545;52.092;7.006;2022-09-02T06:38:08;18.10;99.90
14908;DHT22;7545;52.092;7.006;2022-09-02T06:40:36;18.10;99.90
14908;DHT22;7545;52.092;7.006;2022-09-02T06:43:01;18.20;99.90
14908;DHT22;7545;52.092;7.006;2022-09-02T06:45:27;18.20;99.90
14908;DHT22;7545;52.092;7.006;2022-09-02T06:47:53;18.30;99.90
14908;DHT22;7545;52.092;7.006;2022-09-02T06:50:19;18.30;99.90
14908;DHT22;7545;52.092;7.006;2022-09-02T06:52:45;18.30;99.90
14908;DHT22;7545;52.092;7.006;2022-09-02T06:55:10;18.30;99.90
14908;DHT22;7545;52.092;7.006;2022-09-02T06:57:37;18.40;99.90
14908;DHT22;7545;52.092;7.006;2022-09-02T07:00:06;18.40;99.90
14908;DHT22;7545;52.092;7.006;2022-09-02T07:02:32;18.50;99.90
14908;DHT22;7545;52.092;7.006;2022-09-02T07:04:58;18.50;99.90
14908;DHT22;7545;52.092;7.006;2022-09-02T07:07:39;18.50;99.90
14908;DHT22;7545;52.092;7.006;2022-09-02T07:10:07;18.60;99.90
14908;DHT22;7545;52.092;7.006;2022-09-02T07:12:37;18.60;99.90
14908;DHT22;7545;52.092;7.006;2022-09-02T07:15:04;18.60;99.90
14908;DHT22;7545;52.092;7.006;2022-09-02T07:17:30;18.70;99.90
14908;DHT22;7545;52.092;7.006;2022-09-02T07:19:56;18.80;99.90
14908;DHT22;7545;52.092;7.006;2022-09-02T07:22:27;18.80;99.90
14908;DHT22;7545;52.092;7.006;2022-09-02T07:24:53;18.80;99.90
14908;DHT22;7545;52.092;7.006;2022-09-02T07:27:19;18.90;99.90
14908;DHT22;7545;52.092;7.006;2022-09-02T07:29:46;18.90;99.90
14908;DHT22;7545;52.092;7.006;2022-09-02T07:32:14;18.90;99.90
14908;DHT22;7545;52.092;7.006;2022-09-02T07:34:40;19.00;99.90
14908;DHT22;7545;52.092;7.006;2022-09-02T07:37:06;19.00;99.90
14908;DHT22;7545;52.092;7.006;2022-09-02T07:39:32;19.00;99.90
14908;DHT22;7545;52.092;7.006;2022-09-02T07:41:58;19.00;99.90
14908;DHT22;7545;52.092;7.006;2022-09-02T07:44:23;19.10;99.90
14908;DHT22;7545;52.092;7.006;2022-09-02T07:46:49;19.10;99.90
14908;DHT22;7545;52.092;7.006;2022-09-02T07:49:16;19.10;99.90
14908;DHT22;7545;52.092;7.006;2022-09-02T07:51:44;19.10;99.90
14908;DHT22;7545;52.092;7.006;2022-09-02T07:54:12;19.10;99.90
14908;DHT22;7545;52.092;7.006;2022-09-02T07:56:37;19.20;99.90
14908;DHT22;7545;52.092;7.006;2022-09-02T07:59:03;19.20;99.90
14908;DHT22;7545;52.092;7.006;2022-09-02T08:01:29;19.20;99.90
14908;DHT22;7545;52.092;7.006;2022-09-02T08:03:55;19.30;99.90
14908;DHT22;7545;52.092;7.006;2022-09-02T08:06:21;19.40;99.90
14908;DHT22;7545;52.092;7.006;2022-09-02T08:08:52;19.40;99.90
14908;DHT22;7545;52.092;7.006;2022-09-02T08:11:18;19.40;99.90
14908;DHT22;7545;52.092;7.006;2022-09-02T08:13:44;19.50;99.90
14908;DHT22;7545;52.092;7.006;2022-09-02T08:16:10;19.50;99.90
14908;DHT22;7545;52.092;7.006;2022-09-02T08:18:36;19.60;99.90
14908;DHT22;7545;52.092;7.006;2022-09-02T08:21:01;19.60;99.90
14908;DHT22;7545;52.092;7.006;2022-09-02T08:23:27;19.70;99.90
14908;DHT22;7545;52.092;7.006;2022-09-02T08:25:53;19.70;99.90
14908;DHT22;7545;52.092;7.006;2022-09-02T08:28:18;19.80;99.90
14908;DHT22;7545;52.092;7.006;2022-09-02T08:30:44;19.80;99.90
14908;DHT22;7545;52.092;7.006;2022-09-02T08:33:10;19.90;99.90
14908;DHT22;7545;52.092;7.006;2022-09-02T08:35:36;19.90;99.90
14908;DHT22;7545;52.092;7.006;2022-09-02T08:38:02;20.00;99.90
14908;DHT22;7545;52.092;7.006;2022-09-02T08:40:38;20.00;99.90
14908;DHT22;7545;52.092;7.006;2022-09-02T09:16:00;20.40;99.90
14908;DHT22;7545;52.092;7.006;2022-09-02T09:18:39;20.70;99.90
14908;DHT22;7545;52.092;7.006;2022-09-02T09:21:08;20.80;99.90
14908;DHT22;7545;52.092;7.006;2022-09-02T09:23:37;20.80;99.90
14908;DHT22;7545;52.092;7.006;2022-09-02T09:26:11;20.90;99.90
14908;DHT22;7545;52.092;7.006;2022-09-02T09:28:39;21.00;99.90
14908;DHT22;7545;52.092;7.006;2022-09-02T09:31:11;21.00;99.90
14908;DHT22;7545;52.092;7.006;2022-09-02T09:33:37;21.10;99.90
14908;DHT22;7545;52.092;7.006;2022-09-02T09:36:02;21.20;99.90
14908;DHT22;7545;52.092;7.006;2022-09-02T09:38:32;21.30;99.90
14908;DHT22;7545;52.092;7.006;2022-09-02T09:41:20;21.30;99.90
14908;DHT22;7545;52.092;7.006;2022-09-02T09:43:48;21.40;99.90
14908;DHT22;7545;52.092;7.006;2022-09-02T09:46:24;21.50;99.90
14908;DHT22;7545;52.092;7.006;2022-09-02T09:48:50;21.60;99.90
14908;DHT22;7545;52.092;7.006;2022-09-02T09:51:16;21.70;99.90
14908;DHT22;7545;52.092;7.006;2022-09-02T09:53:42;21.80;99.90
14908;DHT22;7545;52.092;7.006;2022-09-02T10:04:01;22.30;99.90
14908;DHT22;7545;52.092;7.006;2022-09-02T10:11:27;22.60;99.90
14908;DHT22;7545;52.092;7.006;2022-09-02T10:14:00;22.60;99.90
14908;DHT22;7545;52.092;7.006;2022-09-02T10:19:36;22.90;99.90
14908;DHT22;7545;52.092;7.006;2022-09-02T10:22:36;23.00;99.70
14908;DHT22;7545;52.092;7.006;2022-09-02T10:30:33;23.40;99.00
14908;DHT22;7545;52.092;7.006;2022-09-02T10:33:16;23.40;98.70
14908;DHT22;7545;52.092;7.006;2022-09-02T10:35:47;23.50;98.60
14908;DHT22;7545;52.092;7.006;2022-09-02T10:46:58;23.80;97.90
14908;DHT22;7545;52.092;7.006;2022-09-02T11:00:58;24.30;96.90
14908;DHT22;7545;52.092;7.006;2022-09-02T11:03:27;24.30;96.30
14908;DHT22;7545;52.092;7.006;2022-09-02T11:05:57;24.30;96.30
14908;DHT22;7545;52.092;7.006;2022-09-02T11:08:45;24.40;96.20
14908;DHT22;7545;52.092;7.006;2022-09-02T11:11:26;24.40;95.80
14908;DHT22;7545;52.092;7.006;2022-09-02T11:14:32;24.50;95.30
14908;DHT22;7545;52.092;7.006;2022-09-02T11:25:26;24.90;94.70
14908;DHT22;7545;52.092;7.006;2022-09-02T11:28:19;25.00;94.50
14908;DHT22;7545;52.092;7.006;2022-09-02T11:30:52;25.10;94.40
14908;DHT22;7545;52.092;7.006;2022-09-02T11:34:31;25.20;94.40
14908;DHT22;7545;52.092;7.006;2022-09-02T11:36:23;25.40;94.60
14908;DHT22;7545;52.092;7.006;2022-09-02T11:38:54;25.50;94.30
14908;DHT22;7545;52.092;7.006;2022-09-02T11:41:27;25.50;94.20
14908;DHT22;7545;52.092;7.006;2022-09-02T11:44:05;25.60;94.30
14908;DHT22;7545;52.092;7.006;2022-09-02T11:58:29;25.30;94.40
14908;DHT22;7545;52.092;7.006;2022-09-02T12:03:29;25.10;94.40
14908;DHT22;7545;52.092;7.006;2022-09-02T12:06:06;25.00;94.30
14908;DHT22;7545;52.092;7.006;2022-09-02T12:11:05;25.00;94.90
14908;DHT22;7545;52.092;7.006;2022-09-02T12:13:44;25.00;95.20
14908;DHT22;7545;52.092;7.006;2022-09-02T12:21:22;24.70;95.60
14908;DHT22;7545;52.092;7.006;2022-09-02T12:26:29;24.60;95.80
14908;DHT22;7545;52.092;7.006;2022-09-02T12:31:43;24.60;95.90
14908;DHT22;7545;52.092;7.006;2022-09-02T12:52:49;24.50;94.60
14908;DHT22;7545;52.092;7.006;2022-09-02T12:55:30;24.60;94.70
14908;DHT22;7545;52.092;7.006;2022-09-02T12:58:13;24.60;94.10
14908;DHT22;7545;52.092;7.006;2022-09-02T13:04:29;24.60;93.80
14908;DHT22;7545;52.092;7.006;2022-09-02T13:17:47;24.90;93.20
14908;DHT22;7545;52.092;7.006;2022-09-02T13:20:26;24.90;93.20
14908;DHT22;7545;52.092;7.006;2022-09-02T13:31:19;24.70;93.20
14908;DHT22;7545;52.092;7.006;2022-09-02T13:34:00;24.60;93.20
14908;DHT22;7545;52.092;7.006;2022-09-02T13:36:48;24.60;93.30
14908;DHT22;7545;52.092;7.006;2022-09-02T13:39:15;24.60;93.20
14908;DHT22;7545;52.092;7.006;2022-09-02T13:41:41;24.70;92.90
14908;DHT22;7545;52.092;7.006;2022-09-02T13:44:25;24.70;93.10
14908;DHT22;7545;52.092;7.006;2022-09-02T13:47:28;24.70;93.10
14908;DHT22;7545;52.092;7.006;2022-09-02T13:49:49;24.70;93.20
14908;DHT22;7545;52.092;7.006;2022-09-02T13:52:21;24.70;93.10
14908;DHT22;7545;52.092;7.006;2022-09-02T13:54:54;24.70;93.00
14908;DHT22;7545;52.092;7.006;2022-09-02T13:57:23;24.60;93.00
14908;DHT22;7545;52.092;7.006;2022-09-02T13:59:51;24.60;93.10
14908;DHT22;7545;52.092;7.006;2022-09-02T14:02:30;24.60;93.10
14908;DHT22;7545;52.092;7.006;2022-09-02T14:05:06;24.60;92.90
14908;DHT22;7545;52.092;7.006;2022-09-02T14:07:44;24.60;93.00
14908;DHT22;7545;52.092;7.006;2022-09-02T14:10:15;24.60;93.00
14908;DHT22;7545;52.092;7.006;2022-09-02T14:12:42;24.60;92.90
14908;DHT22;7545;52.092;7.006;2022-09-02T14:15:12;24.60;92.80
14908;DHT22;7545;52.092;7.006;2022-09-02T14:17:38;24.60;92.80
14908;DHT22;7545;52.092;7.006;2022-09-02T14:20:21;24.60;92.70
14908;DHT22;7545;52.092;7.006;2022-09-02T14:22:55;24.60;92.60
14908;DHT22;7545;52.092;7.006;2022-09-02T14:25:22;24.50;92.10
14908;DHT22;7545;52.092;7.006;2022-09-02T14:27:57;24.50;92.10
14908;DHT22;7545;52.092;7.006;2022-09-02T14:30:38;24.50;92.80
14908;DHT22;7545;52.092;7.006;2022-09-02T14:33:26;24.50;92.90
14908;DHT22;7545;52.092;7.006;2022-09-02T14:36:00;24.50;93.20
14908;DHT22;7545;52.092;7.006;2022-09-02T14:38:29;24.50;94.10
14908;DHT22;7545;52.092;7.006;2022-09-02T14:41:08;24.50;93.40
14908;DHT22;7545;52.092;7.006;2022-09-02T14:43:52;24.50;93.60
14908;DHT22;7545;52.092;7.006;2022-09-02T14:46:28;24.50;92.80
14908;DHT22;7545;52.092;7.006;2022-09-02T14:48:58;24.50;92.80
14908;DHT22;7545;52.092;7.006;2022-09-02T14:51:33;24.60;92.70
14908;DHT22;7545;52.092;7.006;2022-09-02T14:54:00;24.60;92.80
14908;DHT22;7545;52.092;7.006;2022-09-02T14:56:51;24.70;93.00
14908;DHT22;7545;52.092;7.006;2022-09-02T14:59:18;24.80;92.70
14908;DHT22;7545;52.092;7.006;2022-09-02T15:01:49;24.90;92.70
14908;DHT22;7545;52.092;7.006;2022-09-02T15:04:16;25.00;92.70
14908;DHT22;7545;52.092;7.006;2022-09-02T15:06:43;25.00;92.60
14908;DHT22;7545;52.092;7.006;2022-09-02T15:09:10;25.00;92.40
14908;DHT22;7545;52.092;7.006;2022-09-02T15:11:37;25.10;92.30
14908;DHT22;7545;52.092;7.006;2022-09-02T15:14:04;25.10;92.50
14908;DHT22;7545;52.092;7.006;2022-09-02T15:16:30;25.10;92.20
14908;DHT22;7545;52.092;7.006;2022-09-02T15:18:55;25.20;91.70
14908;DHT22;7545;52.092;7.006;2022-09-02T15:21:21;25.30;91.70
14908;DHT22;7545;52.092;7.006;2022-09-02T15:23:46;25.30;92.40
14908;DHT22;7545;52.092;7.006;2022-09-02T15:26:14;25.30;92.20
14908;DHT22;7545;52.092;7.006;2022-09-02T15:28:40;25.30;92.50
14908;DHT22;7545;52.092;7.006;2022-09-02T15:31:06;25.20;92.10
14908;DHT22;7545;52.092;7.006;2022-09-02T15:33:32;25.20;92.00
14908;DHT22;7545;52.092;7.006;2022-09-02T15:36:24;25.20;92.20
14908;DHT22;7545;52.092;7.006;2022-09-02T15:38:50;25.10;92.10
14908;DHT22;7545;52.092;7.006;2022-09-02T15:41:18;25.10;91.30
14908;DHT22;7545;52.092;7.006;2022-09-02T15:43:45;25.10;92.20
14908;DHT22;7545;52.092;7.006;2022-09-02T15:46:18;25.10;93.30
14908;DHT22;7545;52.092;7.006;2022-09-02T15:48:44;25.00;91.60
14908;DHT22;7545;52.092;7.006;2022-09-02T15:51:11;25.00;91.60
14908;DHT22;7545;52.092;7.006;2022-09-02T15:53:37;25.10;90.90
14908;DHT22;7545;52.092;7.006;2022-09-02T15:56:02;25.10;90.80
14908;DHT22;7545;52.092;7.006;2022-09-02T15:58:28;25.10;90.70
14908;DHT22;7545;52.092;7.006;2022-09-02T16:00:54;25.20;90.30
14908;DHT22;7545;52.092;7.006;2022-09-02T16:03:19;25.20;90.70
14908;DHT22;7545;52.092;7.006;2022-09-02T16:05:45;25.30;91.10
14908;DHT22;7545;52.092;7.006;2022-09-02T16:08:11;25.30;91.00
14908;DHT22;7545;52.092;7.006;2022-09-02T16:10:36;25.30;90.40
14908;DHT22;7545;52.092;7.006;2022-09-02T16:13:02;25.30;90.50
14908;DHT22;7545;52.092;7.006;2022-09-02T16:15:28;25.30;90.80
14908;DHT22;7545;52.092;7.006;2022-09-02T16:17:54;25.20;90.50
14908;DHT22;7545;52.092;7.006;2022-09-02T16:20:20;25.20;90.50
14908;DHT22;7545;52.092;7.006;2022-09-02T16:22:46;25.20;90.40
14908;DHT22;7545;52.092;7.006;2022-09-02T16:25:13;25.20;90.70
14908;DHT22;7545;52.092;7.006;2022-09-02T16:27:39;25.10;90.80
14908;DHT22;7545;52.092;7.006;2022-09-02T16:30:17;25.10;90.60
14908;DHT22;7545;52.092;7.006;2022-09-02T16:32:43;25.10;90.20
14908;DHT22;7545;52.092;7.006;2022-09-02T16:35:09;25.00;90.80
14908;DHT22;7545;52.092;7.006;2022-09-02T16:37:34;25.00;91.50
14908;DHT22;7545;52.092;7.006;2022-09-02T16:40:00;25.00;90.80
14908;DHT22;7545;52.092;7.006;2022-09-02T16:42:27;24.90;91.10
14908;DHT22;7545;52.092;7.006;2022-09-02T16:44:53;24.80;91.60
14908;DHT22;7545;52.092;7.006;2022-09-02T16:47:18;24.70;90.40
14908;DHT22;7545;52.092;7.006;2022-09-02T16:49:44;24.60;91.00
14908;DHT22;7545;52.092;7.006;2022-09-02T16:52:11;24.60;90.80
14908;DHT22;7545;52.092;7.006;2022-09-02T16:54:36;24.60;90.50
14908;DHT22;7545;52.092;7.006;2022-09-02T16:57:02;24.50;91.20
14908;DHT22;7545;52.092;7.006;2022-09-02T16:59:28;24.50;91.00
14908;DHT22;7545;52.092;7.006;2022-09-02T17:01:56;24.40;91.00
14908;DHT22;7545;52.092;7.006;2022-09-02T17:04:21;24.40;91.80
14908;DHT22;7545;52.092;7.006;2022-09-02T17:06:47;24.30;91.10
14908;DHT22;7545;52.092;7.006;2022-09-02T17:09:13;24.20;91.40
14908;DHT22;7545;52.092;7.006;2022-09-02T17:11:39;24.20;91.20
14908;DHT22;7545;52.092;7.006;2022-09-02T17:14:11;24.10;91.70
14908;DHT22;7545;52.092;7.006;2022-09-02T17:16:40;24.10;91.50
14908;DHT22;7545;52.092;7.006;2022-09-02T17:19:06;24.10;91.60
14908;DHT22;7545;52.092;7.006;2022-09-02T17:21:35;24.00;91.20
14908;DHT22;7545;52.092;7.006;2022-09-02T17:24:02;24.00;91.00
14908;DHT22;7545;52.092;7.006;2022-09-02T17:26:30;23.90;90.90
14908;DHT22;7545;52.092;7.006;2022-09-02T17:28:58;23.80;91.30
14908;DHT22;7545;52.092;7.006;2022-09-02T17:31:30;23.80;91.60
14908;DHT22;7545;52.092;7.006;2022-09-02T17:34:01;23.70;90.90
14908;DHT22;7545;52.092;7.006;2022-09-02T17:36:28;23.70;90.80
14908;DHT22;7545;52.092;7.006;2022-09-02T17:38:56;23.60;91.70
14908;DHT22;7545;52.092;7.006;2022-09-02T17:41:23;23.60;94.10
14908;DHT22;7545;52.092;7.006;2022-09-02T17:44:06;23.50;91.90
14908;DHT22;7545;52.092;7.006;2022-09-02T17:46:32;23.50;91.70
14908;DHT22;7545;52.092;7.006;2022-09-02T17:48:58;23.50;92.30
14908;DHT22;7545;52.092;7.006;2022-09-02T17:51:24;23.40;91.90
14908;DHT22;7545;52.092;7.006;2022-09-02T17:53:50;23.30;91.60
14908;DHT22;7545;52.092;7.006;2022-09-02T17:56:20;23.30;91.90
14908;DHT22;7545;52.092;7.006;2022-09-02T18:09:50;23.00;92.40
14908;DHT22;7545;52.092;7.006;2022-09-02T18:12:16;22.90;92.30
14908;DHT22;7545;52.092;7.006;2022-09-02T18:14:46;22.90;92.30
14908;DHT22;7545;52.092;7.006;2022-09-02T18:20:09;22.80;92.60
14908;DHT22;7545;52.092;7.006;2022-09-02T18:30:44;22.60;92.60
14908;DHT22;7545;52.092;7.006;2022-09-02T18:33:43;22.50;92.50
14908;DHT22;7545;52.092;7.006;2022-09-02T18:47:05;22.20;92.90
14908;DHT22;7545;52.092;7.006;2022-09-02T18:49:36;22.10;93.20
14908;DHT22;7545;52.092;7.006;2022-09-02T18:52:06;22.10;93.00
14908;DHT22;7545;52.092;7.006;2022-09-02T18:54:49;22.00;93.20
14908;DHT22;7545;52.092;7.006;2022-09-02T18:57:19;22.00;93.20
14908;DHT22;7545;52.092;7.006;2022-09-02T19:00:00;22.00;93.10